createdAt,value
2019-03-17T20:01:53.306Z,80.88
2019-03-17T20:04:31.452Z,81.74
2019-03-17T20:06:59.547Z,81.32
2019-03-17T20:09:31.168Z,80.96
2019-03-17T20:12:02.573Z,80.46
2019-03-17T20:14:34.259Z,80.06
2019-03-17T20:17:05.915Z,79.75
2019-03-17T20:19:37.684Z,79.50
2019-03-17T20:22:09.013Z,79.59
2019-03-17T20:24:40.692Z,80.13
2019-03-17T20:27:12.467Z,80.17
2019-03-17T20:29:43.871Z,79.64
2019-03-17T20:32:15.502Z,80.12
2019-03-17T20:34:47.329Z,80.42
2019-03-17T20:37:19.196Z,80.56
2019-03-17T20:39:54.004Z,80.56
2019-03-17T20:42:24.763Z,80.71
2019-03-17T20:44:56.416Z,80.93
2019-03-17T20:47:29.668Z,80.26
2019-03-17T20:50:01.559Z,80.80
2019-03-17T20:52:33.231Z,80.62
2019-03-17T20:55:05.604Z,80.40
2019-03-17T20:57:37.484Z,79.96
2019-03-17T21:00:11.078Z,79.20
2019-03-17T21:02:42.878Z,79.13
2019-03-17T21:05:15.290Z,79.85
2019-03-17T21:07:47.047Z,78.96
2019-03-17T21:10:18.597Z,79.04
2019-03-17T21:12:50.117Z,79.09
2019-03-17T21:15:21.955Z,78.98
2019-03-17T21:17:53.815Z,79.09
2019-03-17T21:20:25.975Z,79.38
2019-03-17T21:22:57.806Z,78.60
2019-03-17T21:25:29.324Z,78.67
2019-03-17T21:28:01.072Z,78.63
2019-03-17T21:30:32.946Z,78.72
2019-03-17T21:33:04.613Z,79.09
2019-03-17T21:35:36.395Z,78.61
2019-03-17T21:38:08.063Z,78.74
2019-03-17T21:40:56.187Z,78.75
2019-03-17T21:43:14.523Z,79.13
2019-03-17T21:45:46.195Z,79.13
2019-03-17T21:48:17.707Z,79.20
2019-03-17T21:50:49.369Z,79.35
2019-03-17T21:53:20.896Z,78.85
2019-03-17T21:55:54.189Z,79.06
2019-03-17T21:58:25.805Z,79.87
2019-03-17T22:00:57.497Z,79.39
2019-03-17T22:03:30.826Z,79.80
2019-03-17T22:06:04.427Z,79.61
2019-03-17T22:08:37.551Z,79.53
2019-03-17T22:11:09.441Z,79.45
2019-03-17T22:13:41.236Z,79.80
2019-03-17T22:16:12.573Z,79.59
2019-03-17T22:18:44.031Z,79.90
2019-03-17T22:21:15.530Z,79.50
2019-03-17T22:23:47.297Z,79.50
2019-03-17T22:26:19.380Z,79.42
2019-03-17T22:28:51.390Z,79.73
2019-03-17T22:31:23.076Z,79.27
2019-03-17T22:33:54.721Z,79.37
2019-03-17T22:36:26.257Z,79.12
2019-03-17T22:38:58.407Z,79.18
2019-03-17T22:41:30.455Z,79.57
2019-03-17T22:44:02.523Z,78.95
2019-03-17T22:46:34.026Z,79.10
2019-03-17T22:49:06.094Z,79.06
2019-03-17T22:51:37.879Z,79.08
2019-03-17T22:54:09.584Z,78.90
2019-03-17T22:56:41.329Z,78.92
2019-03-17T22:59:13.412Z,79.25
2019-03-17T23:01:45.219Z,78.91
2019-03-17T23:04:17.401Z,79.56
2019-03-17T23:06:49.632Z,79.12
2019-03-17T23:09:21.761Z,79.43
2019-03-17T23:11:53.706Z,79.37
2019-03-17T23:14:36.217Z,79.43
2019-03-17T23:16:59.806Z,79.32
2019-03-17T23:19:31.831Z,79.69
2019-03-17T23:22:04.065Z,79.64
2019-03-17T23:24:36.079Z,79.49
2019-03-17T23:27:08.194Z,79.47
2019-03-17T23:29:40.343Z,79.15
2019-03-17T23:32:12.228Z,79.38
2019-03-17T23:34:44.199Z,79.29
2019-03-17T23:37:16.058Z,79.55
2019-03-17T23:39:48.031Z,79.28
2019-03-17T23:42:20.004Z,79.38
2019-03-17T23:44:51.823Z,78.92
2019-03-17T23:47:23.697Z,79.13
2019-03-17T23:49:55.682Z,78.92
2019-03-17T23:52:27.761Z,79.09
2019-03-17T23:54:59.693Z,79.29
2019-03-17T23:57:33.396Z,79.19
